Time;durP1;ratioP1;P1;durP2;ratioP2;P2;SDS_P1;SDS_P2;PMS_P1;PMS_P2;Temp;Humidity;BMP_temperature;BMP_pressure;BME280_temperature;BME280_humidity;BME280_pressure;Samples;Min_cycle;Max_cycle;Signal;HPM_P1;HPM_P2
2021/12/04 00:00:29;;;;;;;4.60;1.73;;;;;;;2.25;68.94;97665.19;5112153;28;20015;-72
2021/12/04 00:02:54;;;;;;;3.58;1.70;;;;;;;2.23;68.92;97659.22;5124899;27;20027;-73
2021/12/04 00:05:22;;;;;;;2.63;1.63;;;;;;;2.24;68.49;97647.53;5124583;28;20422;-73
2021/12/04 00:07:48;;;;;;;3.03;1.52;;;;;;;2.41;68.16;97668.59;5116425;27;20020;-73
2021/12/04 00:10:18;;;;;;;2.90;1.70;;;;;;;2.39;68.37;97664.44;5110868;28;20068;-73
2021/12/04 00:12:44;;;;;;;3.38;1.55;;;;;;;2.53;67.72;97689.50;5110356;28;20024;-73
2021/12/04 00:15:10;;;;;;;3.33;1.80;;;;;;;2.44;68.50;97664.72;5110819;28;20469;-73
2021/12/04 00:17:35;;;;;;;2.83;1.65;;;;;;;2.41;67.68;97646.38;5120606;28;20036;-73
2021/12/04 00:20:03;;;;;;;2.42;1.50;;;;;;;2.58;67.47;97668.44;5114684;28;20023;-73
2021/12/04 00:22:28;;;;;;;3.88;2.10;;;;;;;2.59;68.29;97664.75;5124625;28;20019;-71
2021/12/04 00:24:53;;;;;;;3.50;1.73;;;;;;;2.63;67.93;97645.53;5117743;27;20092;-72
2021/12/04 00:27:19;;;;;;;5.15;1.92;;;;;;;2.50;68.08;97633.81;5112908;28;20552;-72
2021/12/04 00:29:44;;;;;;;2.83;1.50;;;;;;;2.47;68.24;97631.50;5132695;28;20098;-72
2021/12/04 00:32:27;;;;;;;3.15;1.80;;;;;;;2.54;68.09;97632.41;5130163;27;20027;-72
2021/12/04 00:35:08;;;;;;;3.58;1.45;;;;;;;2.39;68.85;97609.22;5133307;27;20098;-72
2021/12/04 00:38:07;;;;;;;5.60;1.77;;;;;;;2.34;69.34;97608.09;5114160;27;20080;-71
2021/12/04 00:43:24;;;;;;;5.70;2.17;;;;;;;2.02;69.33;97550.50;5124766;28;20035;-72
2021/12/04 00:51:17;;;;;;;3.42;2.05;;;;;;;2.34;70.47;97611.59;5125240;28;20095;-71
2021/12/04 00:53:42;;;;;;;5.80;1.77;;;;;;;2.32;71.26;97594.91;5115701;27;20031;-72
2021/12/04 00:56:08;;;;;;;3.47;2.10;;;;;;;2.33;71.07;97591.25;5112227;28;20059;-71
2021/12/04 00:58:33;;;;;;;5.90;1.92;;;;;;;2.27;70.62;97585.81;5112380;28;20031;-71
2021/12/04 01:00:59;;;;;;;7.10;1.95;;;;;;;2.26;71.30;97573.47;5119906;27;20540;-71
2021/12/04 01:03:24;;;;;;;3.35;1.80;;;;;;;2.35;71.15;97593.72;5121570;27;20031;-71
2021/12/04 01:05:50;;;;;;;3.67;2.10;;;;;;;2.38;70.49;97575.53;5116426;27;20019;-71
2021/12/04 01:08:15;;;;;;;3.55;1.88;;;;;;;2.33;70.64;97566.38;5117972;27;20027;-71
2021/12/04 01:10:41;;;;;;;3.42;1.75;;;;;;;2.40;70.62;97559.31;5117016;27;20088;-71
2021/12/04 01:13:11;;;;;;;4.07;2.00;;;;;;;2.37;70.58;97551.69;5137402;27;20020;-71
2021/12/04 01:15:40;;;;;;;6.53;2.03;;;;;;;2.36;71.41;97548.19;5125964;27;20023;-71
2021/12/04 01:18:06;;;;;;;5.80;2.10;;;;;;;2.32;70.77;97546.88;5125927;27;20023;-71
2021/12/04 01:20:32;;;;;;;3.50;1.98;;;;;;;2.11;70.70;97510.22;5136831;27;20038;-71
2021/12/04 01:22:57;;;;;;;3.03;2.03;;;;;;;2.35;70.42;97540.34;5138909;27;20027;-71
2021/12/04 01:25:22;;;;;;;6.90;2.50;;;;;;;2.29;70.20;97530.41;5128169;27;20020;-71
2021/12/04 01:27:48;;;;;;;6.25;2.30;;;;;;;2.37;70.36;97536.50;5122497;27;20095;-71
2021/12/04 01:30:13;;;;;;;4.43;1.92;;;;;;;2.33;71.24;97542.38;5132878;27;20024;-71
2021/12/04 01:32:39;;;;;;;4.70;2.22;;;;;;;2.16;72.88;97518.53;5119380;27;20102;-71
2021/12/04 01:35:05;;;;;;;4.88;2.40;;;;;;;2.19;73.46;97525.34;5124238;27;20028;-71
2021/12/04 01:37:30;;;;;;;5.78;2.63;;;;;;;2.19;73.47;97523.47;5115911;28;20031;-71
2021/12/04 01:40:00;;;;;;;8.20;2.70;;;;;;;2.20;73.87;97524.31;5123694;27;20044;-71
2021/12/04 01:42:25;;;;;;;5.10;2.38;;;;;;;2.20;74.24;97526.97;5104646;27;20024;-71
2021/12/04 01:44:51;;;;;;;5.45;2.72;;;;;;;2.24;74.43;97522.94;5127522;27;20071;-71
2021/12/04 01:47:20;;;;;;;7.43;3.00;;;;;;;2.27;74.78;97527.91;5135629;27;20023;-71
2021/12/04 01:49:48;;;;;;;9.77;3.08;;;;;;;2.12;75.18;97498.56;5136417;27;20083;-71
2021/12/04 01:52:15;;;;;;;5.28;2.50;;;;;;;2.19;75.24;97509.31;5128821;27;20588;-71
2021/12/04 01:54:40;;;;;;;6.13;2.40;;;;;;;2.09;75.77;97487.41;5120883;27;20027;-71
2021/12/04 01:57:06;;;;;;;5.78;2.38;;;;;;;2.22;75.96;97508.13;5136390;27;20027;-71
2021/12/04 01:59:31;;;;;;;6.40;2.88;;;;;;;2.21;76.44;97512.66;5135915;27;20353;-72
2021/12/04 02:01:57;;;;;;;6.15;2.60;;;;;;;2.18;76.35;97503.16;5131325;27;20027;-71
2021/12/04 02:04:23;;;;;;;6.80;2.95;;;;;;;2.15;77.24;97503.53;5115843;27;20020;-71
2021/12/04 02:06:48;;;;;;;5.60;2.75;;;;;;;1.91;77.88;97469.94;5115775;28;20104;-71
2021/12/04 02:09:14;;;;;;;5.28;2.85;;;;;;;2.06;78.39;97490.44;5115503;28;20503;-71
2021/12/04 02:11:39;;;;;;;6.93;2.97;;;;;;;2.03;79.18;97490.81;5116136;27;20034;-71
2021/12/04 02:14:06;;;;;;;6.60;2.55;;;;;;;2.03;79.99;97490.81;5114702;28;20435;-71
2021/12/04 02:16:32;;;;;;;4.32;2.58;;;;;;;2.00;81.21;97484.00;5130178;27;20031;-71
2021/12/04 02:18:58;;;;;;;4.65;2.33;;;;;;;1.95;82.50;97487.22;5130997;27;20496;-71
2021/12/04 02:21:23;;;;;;;7.03;2.60;;;;;;;1.87;84.85;97489.13;5123451;27;20034;-71
2021/12/04 02:23:49;;;;;;;7.53;2.65;;;;;;;1.80;86.62;97477.53;5126132;27;20472;-71
2021/12/04 02:26:14;;;;;;;5.40;2.55;;;;;;;1.66;87.97;97461.31;5114291;28;20043;-71
2021/12/04 02:28:44;;;;;;;2.92;2.20;;;;;;;1.46;90.04;97452.97;5117324;27;20066;-71
2021/12/04 02:31:09;;;;;;;5.10;2.38;;;;;;;1.36;91.71;97433.72;5123281;27;20027;-71
2021/12/04 02:33:35;;;;;;;4.25;2.28;;;;;;;1.50;93.21;97467.59;5135469;27;20137;-72
2021/12/04 02:36:02;;;;;;;4.10;2.30;;;;;;;1.46;95.15;97470.81;5124846;28;20031;-72
2021/12/04 02:38:28;;;;;;;3.10;1.98;;;;;;;1.19;95.57;97437.53;5130815;27;20042;-72
2021/12/04 02:40:56;;;;;;;7.15;2.55;;;;;;;1.27;97.00;97459.63;5131739;27;20031;-72
2021/12/04 02:43:22;;;;;;;4.18;2.28;;;;;;;1.23;98.35;97453.00;5141201;27;20023;-75
2021/12/04 02:45:49;;;;;;;3.42;2.10;;;;;;;1.17;99.03;97439.53;5142823;27;20004;-75
2021/12/04 02:48:17;;;;;;;6.10;2.55;;;;;;;1.15;100.00;97438.88;5131884;27;20046;-71
2021/12/04 02:50:42;;;;;;;3.78;2.30;;;;;;;0.84;100.00;97400.66;5127150;27;20095;-71
2021/12/04 02:53:07;;;;;;;4.25;2.50;;;;;;;0.86;100.00;97409.31;5122242;28;20020;-71
2021/12/04 02:55:34;;;;;;;4.53;2.55;;;;;;;0.98;100.00;97425.69;5124019;27;20023;-71
2021/12/04 02:58:00;;;;;;;4.97;2.55;;;;;;;0.97;100.00;97421.38;5132198;27;20445;-71
2021/12/04 03:00:26;;;;;;;6.50;2.80;;;;;;;0.89;100.00;97418.75;5114214;28;20019;-71
2021/12/04 03:02:53;;;;;;;4.88;2.83;;;;;;;0.78;100.00;97393.34;5114449;28;20107;-71
2021/12/04 03:05:26;;;;;;;6.30;3.13;;;;;;;0.88;100.00;97415.25;5113713;27;20610;-71
2021/12/04 03:07:53;;;;;;;5.57;3.10;;;;;;;0.75;100.00;97404.38;5114897;27;20027;-71
2021/12/04 03:10:19;;;;;;;4.93;3.17;;;;;;;0.64;100.00;97386.13;5118167;27;20027;-71
2021/12/04 03:12:45;;;;;;;8.10;3.45;;;;;;;0.71;100.00;97383.59;5134914;27;20023;-71
2021/12/04 03:15:11;;;;;;;7.28;3.25;;;;;;;0.69;100.00;97359.00;5134765;27;20023;-72
2021/12/04 03:17:36;;;;;;;5.63;3.47;;;;;;;0.78;100.00;97372.06;5113938;28;20112;-72
2021/12/04 03:20:04;;;;;;;6.13;3.20;;;;;;;0.91;100.00;97379.47;5125498;27;20461;-71
2021/12/04 03:22:29;;;;;;;7.43;3.72;;;;;;;0.71;100.00;97351.66;5121039;27;20029;-71
2021/12/04 03:24:56;;;;;;;7.30;3.97;;;;;;;0.90;100.00;97380.47;5133052;27;20015;-71
2021/12/04 03:27:23;;;;;;;7.15;3.95;;;;;;;0.90;100.00;97369.00;5133113;27;20015;-71
2021/12/04 03:29:54;;;;;;;7.25;3.80;;;;;;;0.74;100.00;97330.03;5134499;27;20027;-72
2021/12/04 03:40:34;;;;;;;6.43;3.60;;;;;;;0.97;100.00;97344.16;5098068;28;20101;-72
2021/12/04 03:43:02;;;;;;;6.53;3.42;;;;;;;1.02;100.00;97335.59;5125180;27;20499;-71
2021/12/04 03:45:28;;;;;;;4.90;3.03;;;;;;;1.02;100.00;97330.28;5112045;28;20015;-71
2021/12/04 03:48:03;;;;;;;7.20;3.25;;;;;;;0.98;100.00;97308.53;5115829;27;20050;-71
2021/12/04 03:50:28;;;;;;;8.68;4.18;;;;;;;0.79;100.00;97269.09;5132624;27;20503;-71
2021/12/04 03:52:53;;;;;;;6.13;3.60;;;;;;;0.97;100.00;97308.69;5134437;27;20031;-71
2021/12/04 03:55:18;;;;;;;8.50;4.15;;;;;;;1.01;100.00;97310.00;5114827;27;20034;-71
2021/12/04 03:57:44;;;;;;;8.15;4.03;;;;;;;1.04;100.00;97317.63;5131024;28;20102;-71
2021/12/04 04:00:14;;;;;;;7.18;4.25;;;;;;;1.01;100.00;97302.81;5134008;27;20033;-71
2021/12/04 04:02:40;;;;;;;8.77;4.05;;;;;;;0.84;100.00;97269.38;5121715;27;20099;-71
2021/12/04 04:05:07;;;;;;;7.63;4.50;;;;;;;1.06;100.00;97300.44;5130858;27;20523;-71
2021/12/04 04:07:32;;;;;;;10.02;4.35;;;;;;;1.09;100.00;97286.78;5117753;28;20023;-71
2021/12/04 04:09:58;;;;;;;8.05;4.47;;;;;;;1.12;100.00;97282.91;5111483;28;20087;-72
2021/12/04 04:12:23;;;;;;;8.45;3.97;;;;;;;1.12;100.00;97290.09;5120698;28;20118;-71
2021/12/04 04:14:48;;;;;;;9.48;4.30;;;;;;;0.85;100.00;97244.41;5113362;28;20024;-71
2021/12/04 04:17:14;;;;;;;8.93;4.20;;;;;;;1.04;100.00;97261.69;5115650;28;20060;-71
2021/12/04 04:19:39;;;;;;;8.65;4.03;;;;;;;1.18;100.00;97281.38;5133114;27;20468;-71
2021/12/04 04:22:05;;;;;;;8.68;4.43;;;;;;;1.16;100.00;97272.75;5111647;28;20096;-71
2021/12/04 04:24:32;;;;;;;7.97;4.15;;;;;;;1.10;100.00;97263.63;5115966;28;20095;-71
2021/12/04 04:26:57;;;;;;;9.43;4.40;;;;;;;1.17;100.00;97269.06;5118181;28;20031;-71
2021/12/04 04:29:24;;;;;;;10.57;4.15;;;;;;;1.05;100.00;97234.91;5122592;28;20023;-71
2021/12/04 04:31:49;;;;;;;9.00;4.57;;;;;;;1.26;100.00;97262.66;5128172;27;20023;-70
2021/12/04 04:34:25;;;;;;;7.22;4.03;;;;;;;1.25;100.00;97255.66;5113000;28;20384;-71
2021/12/04 05:14:44;;;;;;;10.30;4.10;;;;;;;1.59;100.00;97203.66;5117754;27;20074;-70
2021/12/04 05:17:14;;;;;;;8.75;4.25;;;;;;;1.50;100.00;97192.28;5133629;27;20027;-69
2021/12/04 05:22:09;;;;;;;7.20;3.85;;;;;;;1.54;100.00;97196.19;5144516;27;20447;-69
2021/12/04 05:24:35;;;;;;;7.85;3.75;;;;;;;1.44;100.00;97166.34;5140068;27;20499;-70
2021/12/04 05:27:01;;;;;;;7.20;3.83;;;;;;;1.41;100.00;97132.09;5133490;27;20059;-70
2021/12/04 05:29:26;;;;;;;7.85;3.75;;;;;;;1.77;100.00;97184.59;5137613;27;20042;-69
2021/12/04 05:31:52;;;;;;;6.28;3.22;;;;;;;1.80;100.00;97173.56;5140707;27;20026;-69
2021/12/04 05:34:18;;;;;;;4.93;2.97;;;;;;;1.84;100.00;97172.16;5148452;27;20023;-71
2021/12/04 05:36:43;;;;;;;8.43;3.90;;;;;;;1.88;100.00;97176.91;5129597;27;20389;-69
2021/12/04 05:39:09;;;;;;;6.93;3.55;;;;;;;1.71;100.00;97147.00;5137055;27;20026;-71
2021/12/04 05:41:35;;;;;;;9.23;3.97;;;;;;;1.88;100.00;97168.91;5139738;27;20018;-70
2021/12/04 05:44:05;;;;;;;7.28;3.58;;;;;;;1.84;100.00;97156.19;5143015;27;20022;-71
2021/12/04 05:46:37;;;;;;;9.52;3.67;;;;;;;1.88;100.00;97176.09;5131200;27;20019;-72
2021/12/04 05:49:28;;;;;;;6.22;2.70;;;;;;;1.91;100.00;97165.91;5125941;27;20019;-72
2021/12/04 05:56:42;;;;;;;5.60;2.90;;;;;;;2.12;100.00;97157.09;5127695;27;20098;-75
2021/12/04 05:59:07;;;;;;;4.63;2.47;;;;;;;2.15;100.00;97150.53;5124416;27;20023;-71
2021/12/04 06:01:33;;;;;;;5.35;2.75;;;;;;;2.31;100.00;97166.28;5146356;27;20065;-72
2021/12/04 06:03:59;;;;;;;4.20;3.08;;;;;;;2.31;100.00;97160.94;5131211;27;20049;-73
2021/12/04 06:06:25;;;;;;;4.15;2.15;;;;;;;2.38;100.00;97164.50;5140714;27;20434;-72
2021/12/04 06:08:50;;;;;;;2.85;1.95;;;;;;;2.42;100.00;97170.28;5120797;27;20123;-72
2021/12/04 06:11:16;;;;;;;4.00;2.22;;;;;;;2.44;100.00;97156.72;5114747;28;20026;-71
2021/12/04 06:13:41;;;;;;;6.10;3.10;;;;;;;2.26;100.00;97128.69;5138916;27;20087;-74
2021/12/04 06:16:07;;;;;;;3.95;1.98;;;;;;;2.52;100.00;97162.78;5132457;27;20027;-71
2021/12/04 06:18:33;;;;;;;3.97;2.50;;;;;;;2.55;100.00;97146.38;5116409;27;20031;-71
2021/12/04 06:23:27;;;;;;;3.80;2.00;;;;;;;2.51;100.00;97146.94;5073906;28;20076;-75
2021/12/04 06:25:52;;;;;;;4.28;2.60;;;;;;;2.48;100.00;97142.00;5076685;28;20021;-75
2021/12/04 06:28:18;;;;;;;5.80;2.50;;;;;;;2.34;100.00;97125.88;5073988;28;20020;-75
2021/12/04 06:30:43;;;;;;;5.00;2.47;;;;;;;2.45;100.00;97137.03;5076531;28;20107;-73
2021/12/04 06:33:10;;;;;;;5.38;2.50;;;;;;;2.51;100.00;97138.94;5074918;28;20031;-75
2021/12/04 06:35:40;;;;;;;3.22;1.90;;;;;;;2.49;100.00;97117.78;5074637;28;20040;-75
2021/12/04 06:38:06;;;;;;;;;;;;;;;2.54;100.00;97125.19;5073792;28;20020;-76
2021/12/04 06:40:31;;;;;;;3.97;2.63;;;;;;;2.51;100.00;97128.25;5071709;28;20408;-75
2021/12/04 06:42:58;;;;;;;4.95;2.08;;;;;;;2.64;100.00;97123.00;5071287;28;20093;-76
2021/12/04 06:45:25;;;;;;;3.83;2.13;;;;;;;2.71;100.00;97128.41;5073903;28;20473;-75
2021/12/04 06:47:54;;;;;;;3.15;1.90;;;;;;;2.72;100.00;97122.84;5072190;28;20028;-76
2021/12/04 06:50:30;;;;;;;4.00;2.05;;;;;;;2.75;100.00;97124.31;5068953;28;20060;-71
2021/12/04 06:52:59;;;;;;;3.42;1.80;;;;;;;2.76;100.00;97121.47;5072714;28;20488;-76
2021/12/04 06:55:28;;;;;;;2.78;1.90;;;;;;;2.50;100.00;97094.59;5075218;28;20082;-76
2021/12/04 06:57:54;;;;;;;5.03;2.28;;;;;;;2.53;100.00;97094.19;5074141;28;20032;-76
2021/12/04 07:00:20;;;;;;;4.10;2.17;;;;;;;2.67;100.00;97122.63;5075159;28;20020;-76
2021/12/04 07:02:45;;;;;;;2.83;1.83;;;;;;;2.60;100.00;97106.56;5072279;28;20028;-76
2021/12/04 07:05:10;;;;;;;5.72;3.00;;;;;;;2.63;100.00;97092.81;5073522;28;20061;-76
2021/12/04 07:07:36;;;;;;;6.25;2.33;;;;;;;2.83;100.00;97100.97;5086986;28;20035;-76
2021/12/04 07:10:02;;;;;;;3.17;1.60;;;;;;;2.91;100.00;97117.84;5094683;28;20037;-76
2021/12/04 07:12:28;;;;;;;3.60;1.85;;;;;;;2.85;100.00;97092.75;5084755;28;20058;-76
2021/12/04 07:14:53;;;;;;;2.85;1.85;;;;;;;2.90;100.00;97097.50;5093661;28;20032;-75
2021/12/04 07:17:18;;;;;;;2.50;1.50;;;;;;;2.87;100.00;97103.25;5088626;28;20009;-75
2021/12/04 07:19:44;;;;;;;3.50;2.13;;;;;;;2.87;100.00;97092.56;5087945;28;20027;-76
2021/12/04 07:22:10;;;;;;;2.72;1.77;;;;;;;2.90;100.00;97094.84;5082357;28;20029;-76
2021/12/04 07:24:35;;;;;;;3.97;1.88;;;;;;;2.95;100.00;97105.75;5074134;28;20038;-76
2021/12/04 07:27:01;;;;;;;3.33;2.08;;;;;;;2.90;100.00;97092.16;5073140;28;20302;-76
2021/12/04 07:29:26;;;;;;;4.07;2.13;;;;;;;2.93;100.00;97099.78;5066976;28;20032;-76
2021/12/04 07:31:52;;;;;;;4.60;2.35;;;;;;;2.84;100.00;97083.91;5072909;28;20142;-76
2021/12/04 07:34:17;;;;;;;3.88;1.80;;;;;;;3.00;100.00;97097.97;5085679;28;20032;-76
2021/12/04 07:36:43;;;;;;;5.05;2.35;;;;;;;2.89;100.00;97082.50;5074137;28;20492;-76
2021/12/04 07:39:08;;;;;;;4.10;2.25;;;;;;;2.85;100.00;97074.88;5078137;28;20020;-78
2021/12/04 07:41:38;;;;;;;3.15;1.90;;;;;;;2.90;100.00;97076.13;5084739;28;20081;-77
2021/12/04 07:44:04;;;;;;;3.85;1.92;;;;;;;2.95;100.00;97077.19;5083964;28;20056;-79
2021/12/04 07:46:29;;;;;;;6.03;1.70;;;;;;;3.07;100.00;97085.50;5082840;28;20016;-78
2021/12/04 07:48:54;;;;;;;3.95;1.55;;;;;;;3.10;100.00;97077.06;5093407;28;20013;-77
2021/12/04 07:51:22;;;;;;;3.25;2.10;;;;;;;3.12;100.00;97076.84;5079621;28;20024;-76
2021/12/04 07:53:47;;;;;;;4.15;1.92;;;;;;;3.18;100.00;97092.94;5079092;28;20031;-78
2021/12/04 07:56:16;;;;;;;5.45;2.40;;;;;;;2.95;100.00;97041.66;5087493;28;20095;-78
2021/12/04 07:58:42;;;;;;;3.67;2.08;;;;;;;3.23;100.00;97089.66;5092525;28;20024;-81
2021/12/04 08:01:09;;;;;;;4.68;2.20;;;;;;;3.09;100.00;97072.72;5083872;28;20029;-78
2021/12/04 08:03:34;;;;;;;4.35;2.05;;;;;;;3.05;100.00;97045.59;5078972;28;20047;-75
2021/12/04 08:06:00;;;;;;;4.80;2.25;;;;;;;3.32;100.00;97076.94;5092334;28;20021;-75
2021/12/04 08:08:25;;;;;;;4.82;2.72;;;;;;;3.25;100.00;97074.28;5080989;28;20017;-75
2021/12/04 08:10:50;;;;;;;7.75;2.97;;;;;;;3.36;100.00;97083.56;5061530;28;20214;-74
2021/12/04 08:13:16;;;;;;;8.48;3.28;;;;;;;3.34;100.00;97073.06;5063646;28;20097;-80
2021/12/04 08:15:41;;;;;;;4.78;2.38;;;;;;;3.42;100.00;97075.53;5077946;28;20028;-78
2021/12/04 08:18:08;;;;;;;7.25;3.25;;;;;;;3.29;100.00;97060.28;5077343;28;20031;-80
2021/12/04 08:20:33;;;;;;;7.55;3.53;;;;;;;3.43;100.00;97073.69;5077039;28;20021;-79
2021/12/04 08:22:59;;;;;;;5.60;2.63;;;;;;;3.42;100.00;97067.53;5082987;28;20035;-78
2021/12/04 08:25:25;;;;;;;4.68;2.40;;;;;;;3.47;100.00;97070.44;5079222;28;20051;-80
2021/12/04 08:27:52;;;;;;;3.17;1.92;;;;;;;3.49;100.00;97059.53;5078224;28;20067;-80
2021/12/04 08:30:22;;;;;;;2.90;1.35;;;;;;;3.67;100.00;97075.84;5077885;28;20025;-78
2021/12/04 08:32:49;;;;;;;1.70;1.17;;;;;;;3.59;100.00;97056.47;5072568;28;20033;-75
2021/12/04 08:35:18;;;;;;;3.65;1.15;;;;;;;3.67;100.00;97073.16;5079797;28;20024;-78
2021/12/04 08:37:44;;;;;;;1.42;1.08;;;;;;;3.68;100.00;97069.44;5077928;28;20020;-76
2021/12/04 08:40:14;;;;;;;3.25;1.73;;;;;;;3.75;100.00;97072.16;5077607;28;20028;-79
2021/12/04 08:42:41;;;;;;;2.53;1.45;;;;;;;3.80;100.00;97068.84;5077690;28;20021;-77
2021/12/04 08:45:08;;;;;;;2.15;1.48;;;;;;;3.68;100.00;97045.38;5077319;28;20643;-76
2021/12/04 08:47:34;;;;;;;2.60;1.58;;;;;;;3.72;100.00;97054.66;5075044;28;20052;-77
2021/12/04 08:50:00;;;;;;;2.17;1.60;;;;;;;3.89;100.00;97068.47;5077534;28;20025;-76
2021/12/04 08:52:26;;;;;;;2.03;1.30;;;;;;;3.92;100.00;97072.59;5077431;28;20020;-73
2021/12/04 08:54:51;;;;;;;3.33;1.92;;;;;;;3.88;100.00;97072.19;5076407;28;20035;-73
2021/12/04 08:57:16;;;;;;;3.00;1.67;;;;;;;3.92;100.00;97067.22;5070086;28;20032;-71
2021/12/04 08:59:42;;;;;;;5.32;1.80;;;;;;;3.97;100.00;97059.41;5062760;28;20029;-73
2021/12/04 09:02:09;;;;;;;4.53;1.50;;;;;;;3.98;100.00;97076.28;5073895;28;20036;-73
2021/12/04 09:04:35;;;;;;;2.70;1.70;;;;;;;3.87;100.00;97061.66;5076222;28;20367;-72
2021/12/04 09:07:03;;;;;;;3.45;1.73;;;;;;;3.97;100.00;97067.44;5075967;28;20068;-72
2021/12/04 09:09:28;;;;;;;2.42;1.17;;;;;;;4.00;100.00;97060.88;5074708;28;20031;-74
2021/12/04 09:11:59;;;;;;;2.10;1.13;;;;;;;4.02;100.00;97066.84;5073012;28;20017;-73
2021/12/04 09:14:28;;;;;;;5.75;1.58;;;;;;;4.00;100.00;97059.00;5070761;28;20042;-75
2021/12/04 09:16:55;;;;;;;4.00;1.70;;;;;;;4.09;100.00;97065.00;5073387;28;20078;-77
2021/12/04 09:19:23;;;;;;;4.20;1.65;;;;;;;3.99;100.00;97052.00;5072585;28;20036;-76
2021/12/04 09:21:49;;;;;;;2.58;1.67;;;;;;;4.14;100.00;97066.03;5075010;28;20016;-72
2021/12/04 09:24:16;;;;;;;8.20;2.63;;;;;;;4.13;100.00;97048.31;5072571;28;20028;-75
2021/12/04 09:26:57;;;;;;;5.28;2.40;;;;;;;4.26;100.00;97057.38;5072991;28;20031;-74
2021/12/04 09:34:51;;;;;;;3.13;1.92;;;;;;;4.27;100.00;97030.41;5075622;28;20052;-75
2021/12/04 09:59:44;;;;;;;2.20;1.63;;;;;;;4.77;100.00;97011.16;5076739;28;20038;-79
2021/12/04 10:05:09;;;;;;;3.13;1.95;;;;;;;4.88;100.00;97009.69;5074670;28;20025;-72
2021/12/04 10:32:44;;;;;;;2.47;1.48;;;;;;;5.22;100.00;96966.44;4992597;28;20072;-74
2021/12/04 10:35:18;;;;;;;2.85;1.48;;;;;;;5.38;100.00;96967.78;5049717;28;20033;-74
2021/12/04 10:37:59;;;;;;;2.97;1.63;;;;;;;5.48;100.00;96960.09;5071211;28;20024;-74
2021/12/04 10:40:46;;;;;;;3.35;1.77;;;;;;;5.53;100.00;96945.19;5072841;28;20111;-74
2021/12/04 10:43:15;;;;;;;2.83;1.63;;;;;;;5.61;100.00;96945.78;5071603;28;20111;-73
2021/12/04 10:45:47;;;;;;;;;;;;;;;5.72;100.00;96936.22;5065997;28;20470;-73
2021/12/04 10:48:18;;;;;;;2.03;1.38;;;;;;;5.78;100.00;96932.63;5060661;28;19917;-72
2021/12/04 10:53:19;;;;;;;2.30;1.60;;;;;;;5.85;100.00;96895.84;5070275;28;20020;-72
2021/12/04 11:04:06;;;;;;;2.20;1.30;;;;;;;5.95;100.00;96890.00;5065880;28;20085;-72
2021/12/04 11:07:14;;;;;;;2.40;1.45;;;;;;;5.99;100.00;96890.38;5065937;28;20529;-72
2021/12/04 11:23:56;;;;;;;12.90;6.72;;;;;;;6.09;100.00;96837.81;5069254;28;20043;-72
2021/12/04 11:43:00;;;;;;;5.30;3.22;;;;;;;6.36;100.00;96822.22;5063911;28;20024;-72
2021/12/04 11:45:34;;;;;;;3.80;2.30;;;;;;;6.41;100.00;96818.84;5067471;28;20048;-72
2021/12/04 11:48:03;;;;;;;7.60;4.55;;;;;;;6.48;100.00;96818.78;5060696;28;20108;-72
2021/12/04 11:50:35;;;;;;;3.88;2.60;;;;;;;6.44;100.00;96807.66;5067207;28;20035;-72
2021/12/04 11:53:15;;;;;;;3.28;2.30;;;;;;;6.51;100.00;96813.78;5069864;28;20035;-72
2021/12/04 11:55:45;;;;;;;3.80;2.60;;;;;;;6.46;100.00;96815.50;5063150;28;20037;-72
2021/12/04 11:58:23;;;;;;;4.90;3.13;;;;;;;6.53;100.00;96805.50;5068011;28;20048;-72
2021/12/04 12:00:51;;;;;;;6.53;3.25;;;;;;;6.60;100.00;96811.59;5070404;28;20541;-71
2021/12/04 12:03:24;;;;;;;2.92;2.00;;;;;;;6.69;100.00;96802.19;5067344;28;20032;-71
2021/12/04 12:06:03;;;;;;;4.80;2.00;;;;;;;6.79;100.00;96794.38;5068226;28;20077;-71
2021/12/04 12:08:42;;;;;;;5.38;2.20;;;;;;;6.80;100.00;96789.81;5063258;28;20036;-71
2021/12/04 12:11:19;;;;;;;2.72;1.90;;;;;;;6.89;100.00;96768.81;5054356;28;20458;-71
2021/12/04 12:13:55;;;;;;;3.70;1.70;;;;;;;6.89;100.00;96758.91;5065845;28;20158;-71
2021/12/04 12:16:25;;;;;;;3.75;2.10;;;;;;;6.98;100.00;96762.88;5067367;28;20751;-72
2021/12/04 12:18:56;;;;;;;5.68;2.53;;;;;;;7.03;100.00;96778.31;5069220;28;20032;-72
2021/12/04 12:21:28;;;;;;;4.45;2.55;;;;;;;7.02;100.00;96760.53;5065597;28;20467;-71
2021/12/04 12:27:01;;;;;;;3.13;2.00;;;;;;;7.13;100.00;96745.50;5062489;28;20086;-71
2021/12/04 12:33:05;;;;;;;2.73;2.00;;;;;;;7.42;100.00;96735.69;5070569;28;20123;-72
2021/12/04 12:36:03;;;;;;;3.38;1.85;;;;;;;7.41;100.00;96742.09;5050764;28;20370;-72
2021/12/04 12:38:31;;;;;;;4.28;2.35;;;;;;;7.50;100.00;96734.53;5062001;28;20048;-72
2021/12/04 12:41:28;;;;;;;3.63;2.00;;;;;;;7.49;100.00;96709.47;5080302;28;20028;-71
2021/12/04 12:43:53;;;;;;;6.38;2.50;;;;;;;7.56;100.00;96730.88;5079653;28;20044;-72
2021/12/04 12:46:20;;;;;;;10.40;2.80;;;;;;;7.49;100.00;96725.59;5090566;28;20040;-72
2021/12/04 12:48:55;;;;;;;8.43;3.78;;;;;;;7.51;100.00;96730.75;5090728;28;20048;-72
2021/12/04 12:51:31;;;;;;;16.50;3.97;;;;;;;7.51;100.00;96730.75;5090966;28;20036;-72
2021/12/04 12:54:00;;;;;;;4.15;2.30;;;;;;;7.64;100.00;96730.53;5091178;28;20032;-73
2021/12/04 12:56:28;;;;;;;3.53;2.30;;;;;;;7.61;100.00;96712.97;5089258;28;20028;-72
2021/12/04 12:58:57;;;;;;;6.93;3.20;;;;;;;7.70;100.00;96713.41;5076417;28;20032;-74
2021/12/04 13:13:26;;;;;;;6.68;2.63;;;;;;;7.83;100.00;96717.72;5072766;28;20039;-74
2021/12/04 13:15:54;;;;;;;3.30;2.03;;;;;;;7.71;100.00;96711.56;5077543;28;20115;-74
2021/12/04 13:18:25;;;;;;;3.95;2.10;;;;;;;7.71;100.00;96712.38;5077864;28;20553;-74
2021/12/04 13:20:52;;;;;;;3.97;2.45;;;;;;;7.65;100.00;96694.47;5058827;28;20431;-74
2021/12/04 13:23:22;;;;;;;5.68;2.15;;;;;;;7.59;100.00;96688.16;5057995;28;20428;-74
2021/12/04 13:25:56;;;;;;;4.82;1.98;;;;;;;7.77;100.00;96713.31;5071669;28;20024;-74
2021/12/04 13:28:25;;;;;;;4.05;2.30;;;;;;;7.67;100.00;96692.38;5070472;28;20028;-73
2021/12/04 13:30:50;;;;;;;4.85;1.90;;;;;;;7.79;100.00;96711.19;5070781;28;20028;-75
2021/12/04 13:33:16;;;;;;;2.42;1.58;;;;;;;7.75;100.00;96712.72;5075309;28;20040;-74
2021/12/04 13:35:46;;;;;;;4.43;2.50;;;;;;;7.73;100.00;96696.81;5064813;28;20031;-74
2021/12/04 13:38:14;;;;;;;3.67;1.95;;;;;;;7.76;100.00;96711.69;5070254;28;20020;-74
2021/12/04 13:40:39;;;;;;;3.05;1.80;;;;;;;7.73;100.00;96701.38;5070016;28;20027;-74
2021/12/04 13:43:13;;;;;;;5.40;3.03;;;;;;;7.78;100.00;96720.31;5073952;28;20032;-75
2021/12/04 13:45:40;;;;;;;5.53;3.08;;;;;;;7.79;100.00;96713.91;5074511;28;20378;-75
2021/12/04 13:48:06;;;;;;;5.75;3.38;;;;;;;7.68;100.00;96699.41;5075529;28;20032;-75
2021/12/04 13:53:04;;;;;;;3.90;2.22;;;;;;;7.77;100.00;96700.66;5074649;28;20056;-74
2021/12/04 13:55:34;;;;;;;11.90;1.70;;;;;;;7.54;100.00;96682.66;5074769;28;20020;-75
2021/12/04 13:58:02;;;;;;;2.33;1.10;;;;;;;7.73;100.00;96694.13;5082652;28;20077;-75
2021/12/04 14:00:27;;;;;;;7.35;1.85;;;;;;;7.63;100.00;96697.41;5084558;28;20070;-75
2021/12/04 14:02:53;;;;;;;2.63;1.40;;;;;;;7.55;100.00;96688.91;5074077;28;20494;-74
2021/12/04 14:05:21;;;;;;;2.80;1.35;;;;;;;7.74;100.00;96713.78;5071530;28;20043;-75
2021/12/04 14:07:49;;;;;;;2.73;2.00;;;;;;;7.61;100.00;96712.97;5069521;28;20031;-75
2021/12/04 14:10:20;;;;;;;2.22;1.52;;;;;;;7.62;100.00;96719.16;5065174;28;20375;-75
2021/12/04 14:12:46;;;;;;;2.85;1.58;;;;;;;7.68;100.00;96721.75;5054699;28;20029;-75
2021/12/04 14:15:16;;;;;;;2.95;2.00;;;;;;;7.59;100.00;96701.63;5074467;28;20036;-75
2021/12/04 14:17:42;;;;;;;5.72;2.55;;;;;;;7.72;100.00;96732.03;5072729;28;20025;-75
2021/12/04 14:20:09;;;;;;;4.25;2.28;;;;;;;7.62;100.00;96711.94;5073360;28;20421;-75
2021/12/04 14:22:44;;;;;;;3.70;2.00;;;;;;;7.70;100.00;96718.81;5059374;28;20025;-75
2021/12/04 14:25:10;;;;;;;2.17;1.55;;;;;;;7.69;100.00;96719.88;5054410;28;20016;-75
2021/12/04 14:27:37;;;;;;;2.60;1.75;;;;;;;7.63;100.00;96708.19;5064280;28;20039;-75
2021/12/04 14:30:25;;;;;;;3.85;2.00;;;;;;;7.74;100.00;96714.59;5065746;28;20498;-75
2021/12/04 14:32:55;;;;;;;4.88;2.13;;;;;;;7.78;100.00;96726.53;5052822;28;20033;-75
2021/12/04 14:35:26;;;;;;;6.88;2.20;;;;;;;7.71;100.00;96730.41;5053126;28;20031;-75
2021/12/04 14:37:54;;;;;;;5.45;2.50;;;;;;;7.75;100.00;96723.47;5066577;28;20036;-74
2021/12/04 14:40:23;;;;;;;4.03;2.05;;;;;;;7.78;100.00;96734.63;5072409;28;20093;-74
2021/12/04 14:42:49;;;;;;;6.00;2.38;;;;;;;7.73;100.00;96728.28;5058548;28;20087;-75